createdAt,value
2022-08-19T00:00:20.066Z,16.95
2022-08-19T00:02:50.326Z,19.45
2022-08-19T00:05:20.033Z,16.27
2022-08-19T00:07:46.984Z,13.32
2022-08-19T00:10:16.060Z,17.65
2022-08-19T00:12:43.935Z,14.80
2022-08-19T00:15:16.194Z,16.65
2022-08-19T00:17:45.043Z,15.48
2022-08-19T00:20:17.790Z,18.92
2022-08-19T00:22:46.897Z,19.67
2022-08-19T00:25:14.162Z,17.73
2022-08-19T00:27:42.499Z,20.27
2022-08-19T00:30:11.200Z,21.48
2022-08-19T00:32:38.315Z,19.08
2022-08-19T00:35:05.435Z,19.17
2022-08-19T00:37:32.162Z,19.27
2022-08-19T00:39:58.851Z,21.80
2022-08-19T00:42:29.373Z,30.25
2022-08-19T00:44:56.248Z,20.92
2022-08-19T00:47:23.207Z,22.13
2022-08-19T00:49:57.086Z,18.42
2022-08-19T00:52:29.873Z,19.27
2022-08-19T00:54:57.827Z,19.55
2022-08-19T00:57:30.839Z,18.90
2022-08-19T01:00:02.449Z,17.50
2022-08-19T01:02:30.195Z,19.58
2022-08-19T01:04:56.920Z,19.02
2022-08-19T01:07:23.885Z,18.67
2022-08-19T01:09:50.823Z,23.77
2022-08-19T01:12:18.589Z,21.25
2022-08-19T01:14:46.369Z,20.65
2022-08-19T01:17:13.812Z,24.45
2022-08-19T01:19:44.156Z,22.27
2022-08-19T01:22:38.150Z,19.17
2022-08-19T01:25:08.858Z,23.70
2022-08-19T01:27:45.542Z,20.02
2022-08-19T01:30:23.474Z,18.27
2022-08-19T01:32:52.015Z,18.40
2022-08-19T01:35:21.528Z,23.40
2022-08-19T01:38:00.826Z,19.50
2022-08-19T01:40:32.201Z,20.30
2022-08-19T01:42:59.692Z,19.20
2022-08-19T01:45:29.074Z,21.38
2022-08-19T01:48:01.594Z,22.48
2022-08-19T01:50:30.281Z,20.77
2022-08-19T01:53:02.223Z,20.98
2022-08-19T01:55:33.858Z,23.67
2022-08-19T01:58:03.983Z,23.45
2022-08-19T02:00:32.926Z,23.13
2022-08-19T02:03:00.235Z,23.63
2022-08-19T02:05:26.954Z,19.38
2022-08-19T02:07:53.619Z,20.05
2022-08-19T02:10:22.706Z,21.45
2022-08-19T02:12:50.513Z,23.75
2022-08-19T02:15:20.398Z,23.77
2022-08-19T02:17:48.073Z,25.85
2022-08-19T02:20:15.928Z,23.17
2022-08-19T02:22:43.798Z,23.67
2022-08-19T02:25:14.591Z,26.27
2022-08-19T02:27:42.334Z,21.17
2022-08-19T02:30:13.903Z,22.40
2022-08-19T02:32:44.628Z,21.30
2022-08-19T02:35:13.593Z,25.30
2022-08-19T02:37:59.755Z,25.35
2022-08-19T02:42:53.487Z,23.85
2022-08-19T02:45:21.038Z,24.70
2022-08-19T02:47:47.833Z,22.33
2022-08-19T02:50:15.574Z,21.05
2022-08-19T02:52:42.221Z,24.60
2022-08-19T02:55:09.377Z,23.48
2022-08-19T02:57:36.780Z,26.05
2022-08-19T03:00:07.555Z,20.05
2022-08-19T03:02:34.361Z,21.80
2022-08-19T03:05:00.975Z,25.42
2022-08-19T03:07:27.596Z,25.85
2022-08-19T03:09:54.206Z,22.52
2022-08-19T03:12:20.853Z,21.83
2022-08-19T03:14:47.609Z,24.17
2022-08-19T03:17:14.412Z,20.38
2022-08-19T03:19:42.232Z,22.05
2022-08-19T03:22:11.647Z,25.80
2022-08-19T03:24:39.223Z,21.33
2022-08-19T03:27:06.153Z,23.08
2022-08-19T03:29:33.478Z,22.80
2022-08-19T03:32:32.653Z,28.67
2022-08-19T03:34:58.278Z,24.00
2022-08-19T03:37:24.975Z,24.08
2022-08-19T03:39:52.649Z,20.02
2022-08-19T03:42:38.125Z,21.90
2022-08-19T03:45:08.230Z,28.95
2022-08-19T03:47:34.892Z,24.45
2022-08-19T03:50:01.621Z,19.98
2022-08-19T03:52:28.324Z,29.67
2022-08-19T03:54:55.513Z,19.38
2022-08-19T03:57:22.183Z,21.38
2022-08-19T04:00:12.718Z,19.85
2022-08-19T04:02:41.822Z,18.33
2022-08-19T04:05:10.750Z,21.35
2022-08-19T04:07:37.571Z,22.10
2022-08-19T04:10:05.337Z,20.42
2022-08-19T04:12:32.420Z,20.50
2022-08-19T04:14:59.413Z,17.35
2022-08-19T04:17:26.849Z,20.30
2022-08-19T04:19:53.525Z,23.05
2022-08-19T04:22:20.214Z,21.67
2022-08-19T04:24:46.866Z,19.70
2022-08-19T04:27:13.994Z,18.70
2022-08-19T04:29:41.372Z,21.30
2022-08-19T04:32:08.610Z,20.95
2022-08-19T04:34:36.904Z,18.92
2022-08-19T04:37:24.276Z,26.80
2022-08-19T04:40:09.395Z,23.15
2022-08-19T04:42:42.009Z,24.10
2022-08-19T04:45:14.758Z,27.98
2022-08-19T04:47:47.780Z,22.05
2022-08-19T04:50:25.924Z,25.73
2022-08-19T04:52:53.495Z,23.77
2022-08-19T04:55:20.316Z,26.52
2022-08-19T04:57:47.042Z,26.55
2022-08-19T05:00:14.055Z,24.00
2022-08-19T05:02:40.832Z,23.25
2022-08-19T05:05:08.147Z,24.63
2022-08-19T05:07:35.363Z,22.83
2022-08-19T05:10:02.663Z,26.13
2022-08-19T05:12:29.868Z,21.40
2022-08-19T05:14:58.630Z,23.42
2022-08-19T05:17:32.370Z,24.42
2022-08-19T05:20:23.272Z,22.80
2022-08-19T05:22:50.347Z,23.85
2022-08-19T05:25:20.438Z,24.65
2022-08-19T05:27:48.564Z,25.17
2022-08-19T05:30:16.649Z,24.75
2022-08-19T05:32:43.866Z,20.50
2022-08-19T05:35:12.523Z,22.50
2022-08-19T05:37:41.486Z,25.58
2022-08-19T05:40:09.551Z,26.23
2022-08-19T05:42:39.355Z,24.38
2022-08-19T05:45:06.797Z,23.95
2022-08-19T05:47:33.541Z,25.17
2022-08-19T05:50:05.082Z,25.80
2022-08-19T05:52:32.380Z,24.60
2022-08-19T05:55:00.403Z,24.00
2022-08-19T05:57:30.012Z,31.20
2022-08-19T05:59:59.108Z,25.98
2022-08-19T06:02:27.322Z,24.42
2022-08-19T06:04:54.150Z,27.77
2022-08-19T06:07:20.912Z,27.70
2022-08-19T06:09:54.441Z,28.00
2022-08-19T06:12:32.802Z,22.63
2022-08-19T06:15:01.147Z,25.30
2022-08-19T06:17:32.062Z,26.75
2022-08-19T06:19:59.904Z,25.42
2022-08-19T06:22:30.386Z,30.08
2022-08-19T06:24:57.588Z,25.80
2022-08-19T06:27:24.437Z,26.42
2022-08-19T06:29:51.582Z,26.63
2022-08-19T06:32:19.936Z,31.88
2022-08-19T06:34:47.502Z,27.10
2022-08-19T06:37:14.853Z,35.72
2022-08-19T06:39:44.270Z,27.50
2022-08-19T06:42:14.284Z,28.00
2022-08-19T06:44:48.102Z,28.42
2022-08-19T06:47:23.982Z,29.65
2022-08-19T06:50:03.217Z,29.63
2022-08-19T06:52:36.851Z,29.02
2022-08-19T06:55:06.795Z,32.10
2022-08-19T06:57:34.711Z,28.50
2022-08-19T07:00:01.797Z,31.75
2022-08-19T07:02:28.520Z,28.50
2022-08-19T07:04:56.774Z,28.10
2022-08-19T07:07:24.201Z,34.40
2022-08-19T07:09:59.065Z,30.08
2022-08-19T07:12:32.366Z,31.88
2022-08-19T07:14:59.526Z,28.58
2022-08-19T07:17:28.115Z,30.38
2022-08-19T07:19:56.168Z,31.98
2022-08-19T07:22:25.884Z,30.83
2022-08-19T07:24:53.572Z,30.58
2022-08-19T07:27:25.156Z,31.38
2022-08-19T07:29:54.508Z,25.45
2022-08-19T07:32:23.275Z,28.95
2022-08-19T07:34:50.039Z,29.98
2022-08-19T07:37:17.210Z,31.90
2022-08-19T07:39:43.912Z,31.65
2022-08-19T07:42:13.311Z,29.27
2022-08-19T07:47:47.114Z,26.40
2022-08-19T07:50:00.843Z,27.88
2022-08-19T07:52:27.487Z,29.13
2022-08-19T07:54:54.152Z,29.13
2022-08-19T07:57:20.868Z,24.42
2022-08-19T07:59:47.564Z,28.58
2022-08-19T08:02:14.215Z,28.55
2022-08-19T08:04:59.455Z,30.73
2022-08-19T08:07:46.323Z,30.70
2022-08-19T08:10:21.089Z,30.58
2022-08-19T08:13:01.850Z,30.15
2022-08-19T08:15:39.932Z,28.88
2022-08-19T08:18:08.773Z,35.97
2022-08-19T08:20:36.118Z,34.15
2022-08-19T08:23:21.459Z,27.15
2022-08-19T08:25:49.398Z,33.03
2022-08-19T08:28:18.076Z,26.95
2022-08-19T08:30:48.365Z,31.20
2022-08-19T08:33:33.816Z,28.08
2022-08-19T08:36:07.082Z,35.25
2022-08-19T08:38:39.792Z,29.80
2022-08-19T08:41:39.147Z,26.77
2022-08-19T08:44:05.806Z,32.75
2022-08-19T08:46:48.004Z,31.13
2022-08-19T08:49:29.355Z,32.63
2022-08-19T08:52:01.531Z,33.55
2022-08-19T08:54:37.136Z,28.70
2022-08-19T08:57:08.535Z,31.75
2022-08-19T08:59:40.223Z,29.30
2022-08-19T09:02:06.908Z,27.27
2022-08-19T09:04:36.778Z,34.50
2022-08-19T09:07:43.765Z,28.42
2022-08-19T09:10:26.670Z,28.98
2022-08-19T09:12:59.168Z,30.88
2022-08-19T09:15:40.396Z,28.95
2022-08-19T09:18:09.208Z,27.33
2022-08-19T09:20:48.421Z,31.60
2022-08-19T09:23:15.707Z,27.08
2022-08-19T09:25:42.473Z,28.98
2022-08-19T09:28:12.687Z,30.13
2022-08-19T09:30:49.436Z,26.73
2022-08-19T09:33:17.111Z,25.10
2022-08-19T09:35:53.222Z,33.13
2022-08-19T09:38:23.190Z,30.05
2022-08-19T09:40:50.864Z,26.50
2022-08-19T09:43:32.993Z,24.88
2022-08-19T09:46:01.258Z,25.30
2022-08-19T09:48:30.299Z,27.23
2022-08-19T09:51:07.592Z,23.75
2022-08-19T09:53:39.358Z,32.42
2022-08-19T09:56:07.288Z,27.58
2022-08-19T09:58:35.894Z,24.10
2022-08-19T10:01:03.847Z,27.92
2022-08-19T10:03:31.799Z,29.23
2022-08-19T10:06:01.675Z,26.50
2022-08-19T10:08:37.358Z,26.98
2022-08-19T10:11:28.307Z,32.45
2022-08-19T10:13:52.179Z,23.10
2022-08-19T10:16:26.062Z,27.00
2022-08-19T10:18:59.040Z,23.50
2022-08-19T10:21:32.111Z,22.52
2022-08-19T10:24:02.531Z,25.63
2022-08-19T10:26:32.381Z,40.72
2022-08-19T10:28:59.339Z,32.65
2022-08-19T10:32:00.424Z,27.77
2022-08-19T10:34:27.443Z,27.98
2022-08-19T10:37:00.530Z,22.15
2022-08-19T10:39:43.375Z,25.70
2022-08-19T10:42:14.348Z,26.60
2022-08-19T10:44:41.904Z,21.98
2022-08-19T10:47:24.419Z,20.20
2022-08-19T10:50:14.909Z,20.98
2022-08-19T10:52:49.040Z,22.63
2022-08-19T10:55:37.712Z,22.77
2022-08-19T10:58:04.744Z,23.15
2022-08-19T11:00:32.677Z,22.08
2022-08-19T11:02:59.714Z,21.65
2022-08-19T11:05:26.456Z,19.40
2022-08-19T11:07:53.368Z,24.67
2022-08-19T11:10:22.451Z,21.67
2022-08-19T11:12:49.444Z,21.30
2022-08-19T11:15:16.873Z,21.33
2022-08-19T11:17:44.416Z,25.88
2022-08-19T11:20:15.980Z,18.08
2022-08-19T11:22:43.209Z,21.65
2022-08-19T11:25:11.739Z,18.85
2022-08-19T11:27:44.303Z,21.02
2022-08-19T11:30:13.847Z,20.10
2022-08-19T11:32:48.628Z,18.67
2022-08-19T11:35:17.235Z,19.70
2022-08-19T11:37:44.009Z,20.00
2022-08-19T11:40:11.314Z,18.77
2022-08-19T11:42:57.543Z,20.98
2022-08-19T11:47:52.536Z,19.85
2022-08-19T11:50:20.008Z,17.23
2022-08-19T11:52:46.854Z,20.45
2022-08-19T11:55:14.737Z,17.63
2022-08-19T11:57:44.741Z,20.80
2022-08-19T12:00:13.718Z,19.85
2022-08-19T12:02:41.378Z,21.92
2022-08-19T12:05:12.271Z,20.92
2022-08-19T12:07:42.468Z,22.83
2022-08-19T12:10:10.746Z,19.88
2022-08-19T12:12:43.285Z,18.75
2022-08-19T12:15:12.943Z,19.73
2022-08-19T12:17:39.731Z,20.83
2022-08-19T12:20:09.824Z,25.40
2022-08-19T12:22:37.773Z,17.35
2022-08-19T12:25:06.221Z,20.02
2022-08-19T12:27:40.371Z,20.70
2022-08-19T12:30:11.228Z,21.13
2022-08-19T12:32:38.693Z,19.02
2022-08-19T12:35:06.505Z,18.25
2022-08-19T12:37:33.277Z,18.67
2022-08-19T12:40:00.525Z,15.75
2022-08-19T12:42:27.607Z,16.50
2022-08-19T12:44:54.257Z,18.80
2022-08-19T12:47:21.433Z,16.02
2022-08-19T12:49:54.234Z,17.90
2022-08-19T12:52:26.810Z,19.55
2022-08-19T12:54:55.678Z,16.58
2022-08-19T12:57:32.986Z,17.48
2022-08-19T13:00:15.347Z,15.23
2022-08-19T13:02:45.463Z,15.57
2022-08-19T13:05:17.583Z,15.25
2022-08-19T13:07:47.263Z,13.13
2022-08-19T13:10:18.199Z,15.38
2022-08-19T13:12:48.083Z,14.43
2022-08-19T13:15:19.371Z,13.13
2022-08-19T13:17:52.369Z,12.60
2022-08-19T13:20:20.729Z,17.60
2022-08-19T13:22:49.240Z,14.07
2022-08-19T13:25:18.539Z,15.25
2022-08-19T13:27:45.426Z,14.50
2022-08-19T13:30:32.954Z,14.50
2022-08-19T13:33:12.162Z,15.38
2022-08-19T13:35:48.320Z,13.40
2022-08-19T13:38:18.628Z,15.45
2022-08-19T13:40:45.811Z,14.07
2022-08-19T13:43:17.550Z,18.23
2022-08-19T13:45:53.718Z,16.35
2022-08-19T13:48:20.473Z,15.52
2022-08-19T13:50:49.010Z,15.43
2022-08-19T13:53:16.737Z,13.93
2022-08-19T13:55:44.286Z,13.93
2022-08-19T13:58:12.062Z,14.48
2022-08-19T14:00:43.024Z,12.73
2022-08-19T14:03:10.022Z,12.52
2022-08-19T14:05:36.993Z,14.68
2022-08-19T14:08:04.423Z,10.13
2022-08-19T14:10:32.589Z,12.75
2022-08-19T14:13:01.592Z,13.52
2022-08-19T14:15:29.337Z,12.38
2022-08-19T14:17:56.788Z,13.63
2022-08-19T14:20:25.944Z,10.48
2022-08-19T14:22:54.561Z,11.45
2022-08-19T14:25:25.071Z,12.20
2022-08-19T14:27:52.007Z,10.77
2022-08-19T14:30:27.754Z,12.35
2022-08-19T14:32:55.459Z,11.25
2022-08-19T14:35:22.889Z,11.45
2022-08-19T14:37:50.718Z,10.40
2022-08-19T14:40:23.746Z,11.52
2022-08-19T14:42:50.422Z,11.52
2022-08-19T14:45:17.021Z,11.88
2022-08-19T14:47:45.357Z,11.63
2022-08-19T14:50:17.876Z,10.95
2022-08-19T14:52:46.469Z,10.88
2022-08-19T14:55:13.199Z,10.48
2022-08-19T14:57:42.287Z,11.65
2022-08-19T15:00:13.956Z,10.65
2022-08-19T15:02:41.800Z,8.68
2022-08-19T15:05:09.081Z,10.80
2022-08-19T15:07:35.903Z,10.00
2022-08-19T15:10:02.888Z,9.13
2022-08-19T15:12:32.479Z,11.32
2022-08-19T15:14:59.098Z,12.40
2022-08-19T15:17:32.446Z,10.13
2022-08-19T15:20:17.608Z,10.10
2022-08-19T15:22:44.414Z,10.35
2022-08-19T15:25:13.518Z,11.18
2022-08-19T15:30:28.063Z,10.90
2022-08-19T15:32:56.240Z,10.43
2022-08-19T15:35:23.485Z,11.82
2022-08-19T15:37:52.320Z,12.20
2022-08-19T15:40:20.759Z,12.63
2022-08-19T15:42:49.826Z,11.85
2022-08-19T15:45:18.916Z,10.45
2022-08-19T15:47:45.580Z,9.57
2022-08-19T15:50:18.457Z,11.57
2022-08-19T15:52:56.532Z,9.60
2022-08-19T15:55:34.109Z,12.60
2022-08-19T15:58:28.548Z,11.35
2022-08-19T16:01:17.833Z,11.85
2022-08-19T16:04:14.186Z,10.90
2022-08-19T16:07:10.231Z,11.70
2022-08-19T16:09:36.912Z,12.77
2022-08-19T16:12:06.133Z,13.15
2022-08-19T16:14:35.195Z,10.75
2022-08-19T16:17:02.441Z,13.05
2022-08-19T16:19:29.190Z,12.40
2022-08-19T16:21:57.093Z,12.40
2022-08-19T16:24:25.849Z,13.60
2022-08-19T16:26:52.613Z,10.80
2022-08-19T16:29:22.048Z,10.80
2022-08-19T16:32:03.958Z,13.98
2022-08-19T16:34:31.273Z,12.80
2022-08-19T16:36:57.998Z,11.45
2022-08-19T16:39:24.828Z,12.82
2022-08-19T16:41:51.779Z,10.38
2022-08-19T16:44:21.108Z,10.80
2022-08-19T16:46:57.245Z,11.27
2022-08-19T16:49:52.907Z,10.98
2022-08-19T16:52:13.109Z,11.70
2022-08-19T16:54:43.449Z,11.15
2022-08-19T16:57:11.952Z,14.38
2022-08-19T16:59:44.153Z,9.35
2022-08-19T17:02:17.898Z,10.23
2022-08-19T17:04:44.547Z,11.80
2022-08-19T17:07:24.020Z,10.05
2022-08-19T17:09:50.777Z,12.30
2022-08-19T17:12:17.443Z,11.85
2022-08-19T17:14:46.065Z,10.80
2022-08-19T17:17:13.107Z,10.18
2022-08-19T17:19:42.252Z,10.93
2022-08-19T17:22:11.411Z,10.95
2022-08-19T17:24:38.632Z,13.40
2022-08-19T17:27:09.354Z,12.10
2022-08-19T17:29:36.052Z,13.70
2022-08-19T17:32:02.965Z,13.85
2022-08-19T17:34:29.649Z,11.45
2022-08-19T17:36:57.069Z,11.35
2022-08-19T17:39:25.011Z,11.15
2022-08-19T17:41:51.699Z,14.77
2022-08-19T17:44:18.891Z,12.88
2022-08-19T17:46:46.781Z,13.40
2022-08-19T17:49:14.230Z,11.55
2022-08-19T17:51:46.826Z,12.60
2022-08-19T17:54:17.158Z,11.00
2022-08-19T17:56:45.250Z,12.85
2022-08-19T17:59:14.191Z,14.73
2022-08-19T18:01:53.784Z,13.82
2022-08-19T18:04:24.902Z,14.95
2022-08-19T18:06:54.650Z,13.13
2022-08-19T18:09:30.060Z,15.13
2022-08-19T18:12:10.661Z,12.80
2022-08-19T18:14:39.390Z,12.85
2022-08-19T18:17:14.222Z,12.77
2022-08-19T18:19:43.529Z,13.07
2022-08-19T18:22:30.718Z,15.18
2022-08-19T18:24:58.637Z,12.40
2022-08-19T18:27:27.728Z,12.15
2022-08-19T18:29:59.410Z,13.07
2022-08-19T18:32:32.311Z,12.55
2022-08-19T18:35:01.130Z,11.80
2022-08-19T18:37:27.776Z,12.45
2022-08-19T18:40:13.714Z,12.80
2022-08-19T18:43:04.146Z,13.32
2022-08-19T18:45:50.341Z,12.32
2022-08-19T18:51:02.918Z,13.18
2022-08-19T18:53:33.268Z,35.20
2022-08-19T18:56:00.028Z,12.43
2022-08-19T18:58:32.426Z,12.70
2022-08-19T19:01:01.887Z,12.50
2022-08-19T19:03:28.981Z,12.00
2022-08-19T19:05:55.687Z,14.25
2022-08-19T19:08:27.428Z,12.82
2022-08-19T19:10:55.951Z,13.73
2022-08-19T19:13:22.593Z,13.43
2022-08-19T19:15:49.245Z,12.70
2022-08-19T19:18:15.876Z,11.90
2022-08-19T19:20:42.845Z,11.73
2022-08-19T19:23:09.642Z,14.07
2022-08-19T19:25:50.645Z,12.45
2022-08-19T19:28:25.594Z,14.50
2022-08-19T19:30:54.490Z,12.65
2022-08-19T19:33:21.583Z,14.60
2022-08-19T19:35:48.343Z,11.65
2022-08-19T19:38:15.225Z,12.20
2022-08-19T19:40:42.156Z,12.85
2022-08-19T19:43:08.926Z,12.80
2022-08-19T19:45:35.631Z,15.15
2022-08-19T19:48:02.393Z,14.38
2022-08-19T19:50:30.216Z,12.00
2022-08-19T19:52:57.528Z,16.98
2022-08-19T19:55:26.731Z,12.65
2022-08-19T19:57:54.401Z,13.90
2022-08-19T20:00:21.626Z,12.75
2022-08-19T20:02:50.682Z,13.63
2022-08-19T20:05:21.449Z,13.68
2022-08-19T20:08:07.892Z,13.70
2022-08-19T20:13:03.798Z,13.88
2022-08-19T20:15:31.690Z,15.32
2022-08-19T20:18:00.840Z,26.33
2022-08-19T20:20:28.235Z,22.42
2022-08-19T20:22:55.191Z,15.38
2022-08-19T20:25:22.422Z,16.25
2022-08-19T20:27:50.307Z,15.02
2022-08-19T20:30:19.833Z,16.85
2022-08-19T20:32:48.837Z,15.23
2022-08-19T20:35:18.348Z,16.55
2022-08-19T20:37:45.234Z,15.15
2022-08-19T20:40:16.410Z,13.75
2022-08-19T20:42:48.577Z,12.52
2022-08-19T20:45:32.266Z,13.35
2022-08-19T20:48:02.712Z,15.82
2022-08-19T20:50:30.512Z,13.18
2022-08-19T20:52:57.828Z,13.95
2022-08-19T20:55:26.510Z,13.25
2022-08-19T20:57:53.640Z,13.90
2022-08-19T21:00:20.797Z,13.05
2022-08-19T21:02:47.582Z,12.82
2022-08-19T21:05:15.005Z,13.60
2022-08-19T21:07:41.842Z,13.27
2022-08-19T21:10:09.000Z,13.85
2022-08-19T21:12:35.764Z,14.40
2022-08-19T21:15:02.821Z,14.80
2022-08-19T21:17:29.530Z,17.00
2022-08-19T21:19:56.228Z,15.13
2022-08-19T21:22:22.975Z,13.18
2022-08-19T21:24:49.626Z,13.43
2022-08-19T21:27:16.285Z,14.32
2022-08-19T21:29:43.194Z,17.58
2022-08-19T21:32:14.373Z,14.23
2022-08-19T21:34:43.849Z,15.32
2022-08-19T21:37:25.362Z,14.75
2022-08-19T21:39:54.025Z,14.93
2022-08-19T21:42:21.811Z,15.85
2022-08-19T21:44:49.177Z,15.80
2022-08-19T21:47:15.986Z,14.35
2022-08-19T21:49:43.014Z,16.13
2022-08-19T21:52:09.894Z,15.32
2022-08-19T21:54:38.146Z,16.23
2022-08-19T21:57:10.151Z,15.85
2022-08-19T21:59:41.252Z,15.15
2022-08-19T22:02:20.683Z,16.15
2022-08-19T22:04:49.681Z,15.85
2022-08-19T22:07:16.648Z,14.48
2022-08-19T22:09:45.310Z,15.40
2022-08-19T22:12:24.990Z,15.15
2022-08-19T22:14:52.846Z,15.13
2022-08-19T22:17:20.945Z,14.98
2022-08-19T22:19:47.679Z,16.00
2022-08-19T22:22:24.367Z,16.35
2022-08-19T22:24:55.127Z,18.15
2022-08-19T22:27:21.749Z,14.10
2022-08-19T22:29:52.586Z,16.67
2022-08-19T22:32:28.307Z,14.63
2022-08-19T22:34:59.119Z,16.90
2022-08-19T22:37:26.402Z,15.40
2022-08-19T22:39:53.312Z,17.42
2022-08-19T22:42:20.892Z,16.02
2022-08-19T22:44:48.876Z,14.23
2022-08-19T22:47:15.891Z,13.95
2022-08-19T22:49:42.556Z,15.07
2022-08-19T22:52:17.632Z,18.23
2022-08-19T22:54:52.130Z,16.50
2022-08-19T22:57:20.598Z,15.95
2022-08-19T22:59:51.922Z,18.83
2022-08-19T23:02:24.806Z,17.75
2022-08-19T23:04:52.263Z,17.92
2022-08-19T23:07:23.602Z,16.63
2022-08-19T23:09:51.130Z,21.92
2022-08-19T23:12:28.289Z,17.08
2022-08-19T23:14:55.080Z,15.98
2022-08-19T23:17:23.082Z,17.15
2022-08-19T23:19:50.674Z,17.20
2022-08-19T23:22:18.149Z,19.70
2022-08-19T23:24:44.903Z,19.58
2022-08-19T23:27:30.324Z,20.40
2022-08-19T23:30:15.266Z,23.30
2022-08-19T23:32:41.909Z,21.55
2022-08-19T23:35:09.119Z,19.95
2022-08-19T23:37:37.379Z,21.92
2022-08-19T23:40:06.710Z,19.92
2022-08-19T23:42:33.461Z,18.15
2022-08-19T23:45:07.100Z,17.10
2022-08-19T23:47:35.277Z,19.23
2022-08-19T23:50:06.218Z,25.75
2022-08-19T23:52:34.552Z,21.20
2022-08-19T23:55:07.341Z,20.40
2022-08-19T23:57:34.051Z,21.13
